createdAt,value
2017-11-04T00:00:06.584Z,39.47
2017-11-04T00:02:34.673Z,37.37
2017-11-04T00:05:03.517Z,37.07
2017-11-04T00:07:31.603Z,39.37
2017-11-04T00:09:59.681Z,35.13
2017-11-04T00:12:27.759Z,32.30
2017-11-04T00:14:55.848Z,33.70
2017-11-04T00:17:24.691Z,34.10
2017-11-04T00:19:52.775Z,33.93
2017-11-04T00:22:20.862Z,35.57
2017-11-04T00:24:49.716Z,37.73
2017-11-04T00:27:17.804Z,34.40
2017-11-04T00:29:45.899Z,37.30
2017-11-04T00:32:14.742Z,32.63
2017-11-04T00:34:42.834Z,34.67
2017-11-04T00:37:10.924Z,33.92
2017-11-04T00:39:40.668Z,32.60
2017-11-04T00:42:08.764Z,32.20
2017-11-04T00:44:36.851Z,37.70
2017-11-04T00:47:04.947Z,33.50
2017-11-04T00:49:33.807Z,32.67
2017-11-04T00:52:01.884Z,35.15
2017-11-04T00:54:29.971Z,32.37
2017-11-04T00:56:58.823Z,33.07
2017-11-04T00:59:26.913Z,33.55
2017-11-04T01:01:54.995Z,36.33
2017-11-04T01:04:23.078Z,31.60
2017-11-04T01:06:51.944Z,30.08
2017-11-04T01:09:20.066Z,29.60
2017-11-04T01:11:48.147Z,30.48
2017-11-04T01:14:16.248Z,30.92
2017-11-04T01:16:44.341Z,31.65
2017-11-04T01:19:12.428Z,30.60
2017-11-04T01:21:40.507Z,30.87
2017-11-04T01:24:08.586Z,28.33
2017-11-04T01:26:36.677Z,27.40
2017-11-04T01:29:04.769Z,25.42
2017-11-04T01:31:32.859Z,26.70
2017-11-04T01:34:01.729Z,25.00
2017-11-04T01:36:29.821Z,24.35
2017-11-04T01:38:58.688Z,22.98
2017-11-04T01:41:26.767Z,23.02
2017-11-04T01:43:54.872Z,26.00
2017-11-04T01:46:22.956Z,25.98
2017-11-04T01:48:51.051Z,28.80
2017-11-04T01:51:19.156Z,27.60
2017-11-04T01:53:46.753Z,27.60
2017-11-04T01:56:14.829Z,26.90
2017-11-04T01:58:42.924Z,26.42
2017-11-04T02:01:11.007Z,24.98
2017-11-04T02:03:39.105Z,25.42
2017-11-04T02:06:07.952Z,26.55
2017-11-04T02:08:36.053Z,23.62
2017-11-04T02:11:04.142Z,24.83
2017-11-04T02:13:32.996Z,24.25
2017-11-04T02:16:01.087Z,26.33
2017-11-04T02:18:29.943Z,25.67
2017-11-04T02:20:58.028Z,24.83
2017-11-04T02:23:26.114Z,22.95
2017-11-04T02:25:54.969Z,24.20
2017-11-04T02:28:23.065Z,22.30
2017-11-04T02:30:51.159Z,25.65
2017-11-04T02:33:20.020Z,23.05
2017-11-04T02:35:48.108Z,23.02
2017-11-04T02:38:16.977Z,26.62
2017-11-04T02:40:45.051Z,24.73
2017-11-04T02:43:13.136Z,23.48
2017-11-04T02:45:41.987Z,25.83
2017-11-04T02:48:10.078Z,23.73
2017-11-04T02:50:38.159Z,23.90
2017-11-04T02:53:06.240Z,23.45
2017-11-04T02:55:35.098Z,24.42
2017-11-04T02:58:03.184Z,24.83
2017-11-04T03:00:31.276Z,25.05
2017-11-04T03:03:00.121Z,24.23
2017-11-04T03:05:28.206Z,23.35
2017-11-04T03:07:56.288Z,21.85
2017-11-04T03:10:24.379Z,22.87
2017-11-04T03:12:52.463Z,25.83
2017-11-04T03:15:20.563Z,23.98
2017-11-04T03:17:48.635Z,23.60
2017-11-04T03:20:16.724Z,25.52
2017-11-04T03:22:44.806Z,25.65
2017-11-04T03:25:12.883Z,27.17
2017-11-04T03:27:40.968Z,26.48
2017-11-04T03:30:09.833Z,22.45
2017-11-04T03:32:37.912Z,23.42
2017-11-04T03:35:05.999Z,22.62
2017-11-04T03:37:34.847Z,22.87
2017-11-04T03:40:02.943Z,22.20
2017-11-04T03:42:31.905Z,21.80
2017-11-04T03:45:00.000Z,23.85
2017-11-04T03:47:28.075Z,23.58
2017-11-04T03:49:56.936Z,23.08
2017-11-04T03:52:25.015Z,22.33
2017-11-04T03:54:53.105Z,23.33
2017-11-04T03:57:21.960Z,48.50
2017-11-04T03:59:50.050Z,48.25
2017-11-04T04:02:18.137Z,52.83
2017-11-04T04:04:46.997Z,57.95
2017-11-04T04:07:15.078Z,30.37
2017-11-04T04:09:43.168Z,28.17
2017-11-04T04:12:11.339Z,24.60
2017-11-04T04:14:39.810Z,23.40
2017-11-04T04:17:07.904Z,25.48
2017-11-04T04:19:36.004Z,22.55
2017-11-04T04:22:04.081Z,22.73
2017-11-04T04:24:32.170Z,22.02
2017-11-04T04:27:00.259Z,23.48
2017-11-04T04:29:28.391Z,23.95
2017-11-04T04:31:56.492Z,22.08
2017-11-04T04:34:24.582Z,20.50
2017-11-04T04:36:52.662Z,23.95
2017-11-04T04:39:21.574Z,23.67
2017-11-04T04:41:50.431Z,23.33
2017-11-04T04:44:19.291Z,21.17
2017-11-04T04:46:47.392Z,20.92
2017-11-04T04:49:15.475Z,22.77
2017-11-04T04:51:43.723Z,32.83
2017-11-04T04:54:11.831Z,23.98
2017-11-04T04:56:39.907Z,28.90
2017-11-04T04:59:08.097Z,26.98
2017-11-04T05:01:36.167Z,23.75
2017-11-04T05:04:04.265Z,28.45
2017-11-04T05:06:32.357Z,30.58
2017-11-04T05:09:00.452Z,27.48
2017-11-04T05:11:29.303Z,23.85
2017-11-04T05:13:57.392Z,26.33
2017-11-04T05:16:25.470Z,24.17
2017-11-04T05:18:54.333Z,22.70
2017-11-04T05:21:22.487Z,20.55
2017-11-04T05:23:50.578Z,22.62
2017-11-04T05:26:18.657Z,24.85
2017-11-04T05:28:46.758Z,25.42
2017-11-04T05:31:14.895Z,24.75
2017-11-04T05:33:42.970Z,23.15
2017-11-04T05:36:11.076Z,22.77
2017-11-04T05:38:39.309Z,24.73
2017-11-04T05:41:07.396Z,25.58
2017-11-04T05:43:35.522Z,24.35
2017-11-04T05:46:03.605Z,23.62
2017-11-04T05:48:31.686Z,21.85
2017-11-04T05:50:59.775Z,23.35
2017-11-04T05:53:28.631Z,23.85
2017-11-04T05:55:56.707Z,24.70
2017-11-04T05:58:24.788Z,29.45
2017-11-04T06:00:52.868Z,28.70
2017-11-04T06:03:20.947Z,27.80
2017-11-04T06:05:49.791Z,29.63
2017-11-04T06:08:17.869Z,29.60
2017-11-04T06:10:46.016Z,34.60
2017-11-04T06:13:14.104Z,30.58
2017-11-04T06:15:42.183Z,30.40
2017-11-04T06:18:10.272Z,31.95
2017-11-04T06:20:38.356Z,36.97
2017-11-04T06:23:07.207Z,38.03
2017-11-04T06:25:35.312Z,50.28
2017-11-04T06:28:03.378Z,43.72
2017-11-04T06:30:32.232Z,51.50
2017-11-04T06:33:00.321Z,53.92
2017-11-04T06:35:28.406Z,55.97
2017-11-04T06:37:56.486Z,55.25
2017-11-04T06:40:25.351Z,79.87
2017-11-04T06:42:53.441Z,97.03
2017-11-04T06:45:22.290Z,77.05
2017-11-04T06:47:50.377Z,75.80
2017-11-04T06:50:18.484Z,75.03
2017-11-04T06:52:47.331Z,46.95
2017-11-04T06:55:15.428Z,58.35
2017-11-04T06:57:44.278Z,58.17
2017-11-04T07:00:12.370Z,46.55
2017-11-04T07:02:40.450Z,46.50
2017-11-04T07:05:08.541Z,42.83
2017-11-04T07:07:37.397Z,41.90
2017-11-04T07:10:05.483Z,39.85
2017-11-04T07:12:33.566Z,42.45
2017-11-04T07:15:01.824Z,51.53
2017-11-04T07:17:29.912Z,46.42
2017-11-04T07:19:58.007Z,37.92
2017-11-04T07:22:26.112Z,36.40
2017-11-04T07:24:54.204Z,50.22
2017-11-04T07:27:22.295Z,36.10
2017-11-04T07:29:51.146Z,44.63
2017-11-04T07:32:19.231Z,48.50
2017-11-04T07:34:47.326Z,39.40
2017-11-04T07:37:15.411Z,45.53
2017-11-04T07:39:43.507Z,48.17
2017-11-04T07:42:11.587Z,39.53
2017-11-04T07:44:39.697Z,36.97
2017-11-04T07:47:08.544Z,44.53
2017-11-04T07:49:36.638Z,44.38
2017-11-04T07:52:07.266Z,47.95
2017-11-04T07:54:35.355Z,46.28
2017-11-04T07:57:04.206Z,36.67
2017-11-04T07:59:32.305Z,36.05
2017-11-04T08:02:01.168Z,42.08
2017-11-04T08:04:29.256Z,48.15
2017-11-04T08:06:57.341Z,50.63
2017-11-04T08:09:26.262Z,40.90
2017-11-04T08:11:54.366Z,41.13
2017-11-04T08:14:22.448Z,39.22
2017-11-04T08:16:50.528Z,47.93
2017-11-04T08:19:18.604Z,43.42
2017-11-04T08:21:46.699Z,46.40
2017-11-04T08:24:14.785Z,47.90
2017-11-04T08:26:42.866Z,47.87
2017-11-04T08:29:10.967Z,37.30
2017-11-04T08:31:39.072Z,50.80
2017-11-04T08:34:08.042Z,38.60
2017-11-04T08:36:36.319Z,46.87
2017-11-04T08:39:04.393Z,50.53
2017-11-04T08:41:32.490Z,49.00
2017-11-04T08:44:00.573Z,40.80
2017-11-04T08:46:28.669Z,47.77
2017-11-04T08:48:56.746Z,44.40
2017-11-04T08:51:24.831Z,49.80
2017-11-04T08:53:52.930Z,52.23
2017-11-04T08:56:21.780Z,43.10
2017-11-04T08:58:49.863Z,39.97
2017-11-04T09:01:18.711Z,38.97
2017-11-04T09:03:50.572Z,37.67
2017-11-04T09:06:18.663Z,38.07
2017-11-04T09:08:46.734Z,46.67
2017-11-04T09:11:14.820Z,40.10
2017-11-04T09:13:42.895Z,45.10
2017-11-04T09:16:10.975Z,50.17
2017-11-04T09:18:39.055Z,44.60
2017-11-04T09:21:07.902Z,48.70
2017-11-04T09:23:35.979Z,42.77
2017-11-04T09:26:04.062Z,44.60
2017-11-04T09:28:32.147Z,44.27
2017-11-04T09:31:00.239Z,45.07
2017-11-04T09:33:29.088Z,35.70
2017-11-04T09:35:57.193Z,39.73
2017-11-04T09:38:26.048Z,42.10
2017-11-04T09:40:54.124Z,37.77
2017-11-04T09:43:22.196Z,37.93
2017-11-04T09:45:50.291Z,38.93
2017-11-04T09:48:19.138Z,39.03
2017-11-04T09:50:47.284Z,36.00
2017-11-04T09:53:15.358Z,39.23
2017-11-04T09:55:43.454Z,33.23
2017-11-04T09:58:11.552Z,37.97
2017-11-04T10:00:39.643Z,34.20
2017-11-04T10:03:08.478Z,38.03
2017-11-04T10:05:36.567Z,33.60
2017-11-04T10:08:04.664Z,33.20
2017-11-04T10:10:33.524Z,34.90
2017-11-04T10:13:01.615Z,34.13
2017-11-04T10:15:29.709Z,36.87
2017-11-04T10:17:58.561Z,30.07
2017-11-04T10:20:26.638Z,37.00
2017-11-04T10:22:54.730Z,35.43
2017-11-04T10:25:23.584Z,35.40
2017-11-04T10:27:51.680Z,38.10
2017-11-04T10:30:19.771Z,35.77
2017-11-04T10:32:47.845Z,34.20
2017-11-04T10:35:15.932Z,32.30
2017-11-04T10:37:44.023Z,30.57
2017-11-04T10:40:12.106Z,34.97
2017-11-04T10:42:42.991Z,38.53
2017-11-04T10:45:11.083Z,42.70
2017-11-04T10:47:39.177Z,36.97
2017-11-04T10:50:07.292Z,36.10
2017-11-04T10:52:36.136Z,34.30
2017-11-04T10:55:04.233Z,39.13
2017-11-04T10:57:32.314Z,36.83
2017-11-04T11:00:01.160Z,31.00
2017-11-04T11:02:29.249Z,36.60
2017-11-04T11:04:57.552Z,46.27
2017-11-04T11:07:26.395Z,38.47
2017-11-04T11:09:54.471Z,38.77
2017-11-04T11:12:22.567Z,35.27
2017-11-04T11:14:51.427Z,38.17
2017-11-04T11:17:19.523Z,33.80
2017-11-04T11:19:47.603Z,32.63
2017-11-04T11:22:16.879Z,29.67
2017-11-04T11:24:45.289Z,25.43
2017-11-04T11:27:14.235Z,28.10
2017-11-04T11:29:42.320Z,26.23
2017-11-04T11:32:10.405Z,29.50
2017-11-04T11:34:38.502Z,31.97
2017-11-04T11:37:06.598Z,30.77
2017-11-04T11:39:34.681Z,31.60
2017-11-04T11:42:02.773Z,31.20
2017-11-04T11:44:30.852Z,32.57
2017-11-04T11:46:58.962Z,29.27
2017-11-04T11:49:27.126Z,30.00
2017-11-04T11:51:55.212Z,31.47
2017-11-04T11:54:23.308Z,32.60
2017-11-04T11:56:51.420Z,29.90
2017-11-04T11:59:20.268Z,28.80
2017-11-04T12:01:48.363Z,32.57
2017-11-04T12:04:16.461Z,33.87
2017-11-04T12:06:45.313Z,32.10
2017-11-04T12:09:13.394Z,31.13
2017-11-04T12:11:41.495Z,27.53
2017-11-04T12:14:09.570Z,31.50
2017-11-04T12:16:37.678Z,30.17
2017-11-04T12:19:05.747Z,28.60
2017-11-04T12:21:33.851Z,29.00
2017-11-04T12:24:02.705Z,26.90
2017-11-04T12:26:30.800Z,30.27
2017-11-04T12:28:58.871Z,26.23
2017-11-04T12:31:26.956Z,25.43
2017-11-04T12:33:55.815Z,26.73
2017-11-04T12:36:23.898Z,30.13
2017-11-04T12:38:51.988Z,29.47
2017-11-04T12:41:20.845Z,29.40
2017-11-04T12:43:48.924Z,28.63
2017-11-04T12:46:17.015Z,26.33
2017-11-04T12:48:45.863Z,28.40
2017-11-04T12:51:13.956Z,23.67
2017-11-04T12:53:42.031Z,22.90
2017-11-04T12:56:10.117Z,26.90
2017-11-04T12:58:38.957Z,27.57
2017-11-04T13:01:07.054Z,25.20
2017-11-04T13:03:35.147Z,23.70
2017-11-04T13:06:04.009Z,26.77
2017-11-04T13:08:32.092Z,26.07
2017-11-04T13:11:00.192Z,29.50
2017-11-04T13:13:28.283Z,24.20
2017-11-04T13:15:56.501Z,25.63
2017-11-04T13:18:24.582Z,22.27
2017-11-04T13:20:53.560Z,23.47
2017-11-04T13:23:21.642Z,25.60
2017-11-04T13:25:49.794Z,25.30
2017-11-04T13:28:17.884Z,31.93
2017-11-04T13:30:46.051Z,27.60
2017-11-04T13:33:14.136Z,25.50
2017-11-04T13:35:42.985Z,28.13
2017-11-04T13:38:11.088Z,22.57
2017-11-04T13:40:39.942Z,23.03
2017-11-04T13:43:08.033Z,24.40
2017-11-04T13:45:36.112Z,24.90
2017-11-04T13:48:04.967Z,23.00
2017-11-04T13:50:33.272Z,23.57
2017-11-04T13:53:01.360Z,23.00
2017-11-04T13:55:30.199Z,25.77
2017-11-04T13:57:58.286Z,24.70
2017-11-04T14:00:26.365Z,25.33
2017-11-04T14:02:54.452Z,26.33
2017-11-04T14:05:23.305Z,23.70
2017-11-04T14:07:51.403Z,24.93
2017-11-04T14:12:54.383Z,22.30
2017-11-04T14:15:22.476Z,24.37
2017-11-04T14:17:50.573Z,24.60
2017-11-04T14:20:18.659Z,26.07
2017-11-04T14:22:46.755Z,24.40
2017-11-04T14:25:14.854Z,22.83
2017-11-04T14:27:42.956Z,25.50
2017-11-04T14:30:11.050Z,23.40
2017-11-04T14:32:39.138Z,25.93
2017-11-04T14:35:07.236Z,26.67
2017-11-04T14:37:35.322Z,23.73
2017-11-04T14:40:04.177Z,22.60
2017-11-04T14:42:32.262Z,25.80
2017-11-04T14:45:00.341Z,25.20
2017-11-04T14:47:28.430Z,25.00
2017-11-04T14:49:56.514Z,31.23
2017-11-04T14:52:24.607Z,28.90
2017-11-04T14:54:52.684Z,27.13
2017-11-04T14:57:20.776Z,26.37
2017-11-04T14:59:48.872Z,24.00
2017-11-04T15:02:17.727Z,28.30
2017-11-04T15:04:45.804Z,25.20
2017-11-04T15:07:13.895Z,26.07
2017-11-04T15:09:42.743Z,27.50
2017-11-04T15:12:10.835Z,23.30
2017-11-04T15:14:38.914Z,25.67
2017-11-04T15:17:07.000Z,29.07
2017-11-04T15:19:35.841Z,26.80
2017-11-04T15:22:03.932Z,26.90
2017-11-04T15:24:32.024Z,25.73
2017-11-04T15:27:00.879Z,28.23
2017-11-04T15:29:28.975Z,25.57
2017-11-04T15:31:57.068Z,28.10
2017-11-04T15:34:25.932Z,30.00
2017-11-04T15:36:54.020Z,29.30
2017-11-04T15:39:22.860Z,29.73
2017-11-04T15:41:50.943Z,28.60
2017-11-04T15:44:19.036Z,26.83
2017-11-04T15:46:47.127Z,29.23
2017-11-04T15:49:15.971Z,28.50
2017-11-04T15:51:44.072Z,29.90
2017-11-04T15:54:12.924Z,31.07
2017-11-04T15:56:41.024Z,28.47
2017-11-04T15:59:09.104Z,28.50
2017-11-04T16:01:37.966Z,30.80
2017-11-04T16:04:06.056Z,32.40
2017-11-04T16:06:34.919Z,30.77
2017-11-04T16:09:03.006Z,31.67
2017-11-04T16:11:31.083Z,31.40
2017-11-04T16:13:59.946Z,29.83
2017-11-04T16:16:28.048Z,31.90
2017-11-04T16:18:56.897Z,32.53
2017-11-04T16:21:24.990Z,26.70
2017-11-04T16:23:53.079Z,34.70
2017-11-04T16:26:21.924Z,32.33
2017-11-04T16:28:50.007Z,32.50
2017-11-04T16:31:18.100Z,31.67
2017-11-04T16:33:46.960Z,30.80
2017-11-04T16:36:15.052Z,30.43
2017-11-04T16:38:43.148Z,32.43
2017-11-04T16:41:11.248Z,30.27
2017-11-04T16:43:39.330Z,29.80
2017-11-04T16:46:07.415Z,35.00
2017-11-04T16:48:35.506Z,35.87
2017-11-04T16:51:03.610Z,33.87
2017-11-04T16:53:31.732Z,34.07
2017-11-04T16:55:59.801Z,33.53
2017-11-04T16:58:28.156Z,32.93
2017-11-04T17:00:56.464Z,32.07
2017-11-04T17:03:25.587Z,30.53
2017-11-04T17:05:54.907Z,37.47
2017-11-04T17:08:23.743Z,34.40
2017-11-04T17:10:51.840Z,33.57
2017-11-04T17:13:20.691Z,34.80
2017-11-04T17:15:48.776Z,32.50
2017-11-04T17:18:16.914Z,34.97
2017-11-04T17:20:44.995Z,31.70
2017-11-04T17:23:13.091Z,37.00
2017-11-04T17:25:41.205Z,36.03
2017-11-04T17:28:09.276Z,37.60
2017-11-04T17:30:37.354Z,33.60
2017-11-04T17:33:05.443Z,35.50
2017-11-04T17:35:33.588Z,37.53
2017-11-04T17:38:01.655Z,35.50
2017-11-04T17:40:29.730Z,36.60
2017-11-04T17:42:57.822Z,39.97
2017-11-04T17:45:25.913Z,38.87
2017-11-04T17:47:53.996Z,37.97
2017-11-04T17:50:22.076Z,39.00
2017-11-04T17:52:50.922Z,38.47
2017-11-04T17:55:19.003Z,35.43
2017-11-04T17:57:47.143Z,40.37
2017-11-04T18:00:15.199Z,40.40
2017-11-04T18:02:43.293Z,39.33
2017-11-04T18:05:11.372Z,42.13
2017-11-04T18:07:39.520Z,36.50
2017-11-04T18:10:07.645Z,37.90
2017-11-04T18:12:35.716Z,40.40
2017-11-04T18:15:03.846Z,37.50
2017-11-04T18:17:31.922Z,40.37
2017-11-04T18:20:00.008Z,40.40
2017-11-04T18:22:28.151Z,37.67
2017-11-04T18:24:56.223Z,45.37
2017-11-04T18:27:24.320Z,43.00
2017-11-04T18:29:52.411Z,42.93
2017-11-04T18:32:20.503Z,41.10
2017-11-04T18:34:49.363Z,42.63
2017-11-04T18:37:17.468Z,45.60
2017-11-04T18:39:46.303Z,46.63
2017-11-04T18:42:14.390Z,40.47
2017-11-04T18:44:42.468Z,43.27
2017-11-04T18:47:10.557Z,42.60
2017-11-04T18:49:39.412Z,41.40
2017-11-04T18:52:07.553Z,44.87
2017-11-04T18:54:35.677Z,42.77
2017-11-04T18:57:03.747Z,38.53
2017-11-04T18:59:31.840Z,43.13
2017-11-04T19:02:00.696Z,40.77
2017-11-04T19:04:28.826Z,46.37
2017-11-04T19:06:56.957Z,44.60
2017-11-04T19:09:25.807Z,46.50
2017-11-04T19:11:53.891Z,40.60
2017-11-04T19:14:22.053Z,44.40
2017-11-04T19:19:46.590Z,44.30
2017-11-04T19:22:15.450Z,43.00
2017-11-04T19:24:43.584Z,45.90
2017-11-04T19:27:11.730Z,42.50
2017-11-04T19:29:39.806Z,44.60
2017-11-04T19:32:08.759Z,45.00
2017-11-04T19:34:36.918Z,44.13
2017-11-04T19:37:04.994Z,45.00
2017-11-04T19:39:33.095Z,41.03
2017-11-04T19:42:02.032Z,43.17
2017-11-04T19:44:30.115Z,41.53
2017-11-04T19:46:58.201Z,44.00
2017-11-04T19:49:27.015Z,46.90
2017-11-04T19:51:57.560Z,46.73
2017-11-04T19:54:25.901Z,41.57
2017-11-04T19:56:54.389Z,42.17
2017-11-04T19:59:22.557Z,44.60
2017-11-04T20:01:50.703Z,44.03
2017-11-04T20:04:18.998Z,44.67
2017-11-04T20:06:47.183Z,42.53
2017-11-04T20:09:15.999Z,41.27
2017-11-04T20:11:44.404Z,39.57
2017-11-04T20:14:13.399Z,40.77
2017-11-04T20:16:41.761Z,41.33
2017-11-04T20:19:09.917Z,44.97
2017-11-04T20:21:38.793Z,40.90
2017-11-04T20:24:07.776Z,40.17
2017-11-04T20:26:36.926Z,41.13
2017-11-04T20:29:05.232Z,40.40
2017-11-04T20:31:33.512Z,39.30
2017-11-04T20:34:01.982Z,41.60
2017-11-04T20:36:30.458Z,41.50
2017-11-04T20:38:58.833Z,38.47
2017-11-04T20:41:26.987Z,39.20
2017-11-04T20:43:55.129Z,40.27
2017-11-04T20:46:23.978Z,41.00
2017-11-04T20:48:52.080Z,40.80
2017-11-04T20:51:20.255Z,40.63
2017-11-04T20:53:48.360Z,38.50
2017-11-04T20:56:16.447Z,40.73
2017-11-04T20:58:44.539Z,35.70
2017-11-04T21:01:12.607Z,37.53
2017-11-04T21:03:41.469Z,36.40
2017-11-04T21:06:09.610Z,36.60
2017-11-04T21:08:37.697Z,36.60
2017-11-04T21:11:05.834Z,37.27
2017-11-04T21:13:34.683Z,35.00
2017-11-04T21:16:02.770Z,40.60
2017-11-04T21:18:31.686Z,33.23
2017-11-04T21:21:00.577Z,32.87
2017-11-04T21:23:29.469Z,34.47
2017-11-04T21:25:58.307Z,35.83
2017-11-04T21:28:26.427Z,34.80
2017-11-04T21:30:55.271Z,28.80
2017-11-04T21:33:23.379Z,33.73
2017-11-04T21:35:52.214Z,35.27
2017-11-04T21:38:20.342Z,34.10
2017-11-04T21:40:49.300Z,32.67
2017-11-04T21:43:18.427Z,35.13
2017-11-04T21:45:47.267Z,30.30
2017-11-04T21:48:15.407Z,37.13
2017-11-04T21:50:43.466Z,36.70
2017-11-04T21:53:11.615Z,38.20
2017-11-04T21:55:39.719Z,35.10
2017-11-04T21:58:07.801Z,32.47
2017-11-04T22:00:35.940Z,35.57
2017-11-04T22:03:04.795Z,35.20
2017-11-04T22:05:32.899Z,35.37
2017-11-04T22:08:01.042Z,34.47
2017-11-04T22:10:29.147Z,33.63
2017-11-04T22:12:57.294Z,32.47
2017-11-04T22:15:25.360Z,35.53
2017-11-04T22:17:53.523Z,32.23
2017-11-04T22:20:21.658Z,31.73
2017-11-04T22:22:49.754Z,34.00
2017-11-04T22:25:17.843Z,35.73
2017-11-04T22:27:46.715Z,35.20
2017-11-04T22:30:14.847Z,31.93
2017-11-04T22:32:42.966Z,33.47
2017-11-04T22:35:11.037Z,35.03
2017-11-04T22:37:39.183Z,32.40
2017-11-04T22:40:07.326Z,34.83
2017-11-04T22:42:36.967Z,35.97
2017-11-04T22:45:05.064Z,34.00
2017-11-04T22:47:33.144Z,36.97
2017-11-04T22:50:02.000Z,36.70
2017-11-04T22:52:30.124Z,37.37
2017-11-04T22:54:59.012Z,37.80
2017-11-04T22:57:27.839Z,36.57
2017-11-04T22:59:55.927Z,34.83
2017-11-04T23:02:24.006Z,34.57
2017-11-04T23:04:52.134Z,38.63
2017-11-04T23:07:20.197Z,34.13
2017-11-04T23:09:48.335Z,37.30
2017-11-04T23:12:17.192Z,31.33
2017-11-04T23:14:45.283Z,32.70
2017-11-04T23:17:13.363Z,35.13
2017-11-04T23:19:42.297Z,31.83
2017-11-04T23:22:10.374Z,34.90
2017-11-04T23:24:38.467Z,33.03
2017-11-04T23:27:06.551Z,33.13
2017-11-04T23:29:34.639Z,31.23
2017-11-04T23:32:03.483Z,32.97
2017-11-04T23:34:31.567Z,35.10
2017-11-04T23:36:59.654Z,35.13
2017-11-04T23:39:27.727Z,35.07
2017-11-04T23:41:56.575Z,30.70
2017-11-04T23:44:24.669Z,31.30
2017-11-04T23:46:52.756Z,36.80
2017-11-04T23:49:22.399Z,34.33
2017-11-04T23:51:50.496Z,34.67
2017-11-04T23:54:18.587Z,32.97
2017-11-04T23:56:46.676Z,34.90
2017-11-04T23:59:15.523Z,31.33
